Latest Weather Observations for Fawkner Beacon

IDV60801

Issued at 5:42 am EDT Tuesday 13 November 2018 (issued every 10 minutes, with the page automatically refreshed every 10 minutes)

About weather observations | Map of weather stations | Latest weather observations for VIC | Other Formats
Station Details ID: 086376 Name: FAWKNER BEACON Lat: -37.95 Lon: 144.93 Height: 17.0 m
Data from the previous 72 hours. | See also: Recent months for locations in Victoria
Date/Time
EDT
Temp
°C
App
Temp
°C
Dew
Point
°C
Rel
Hum
%
Delta-T
°C
Wind Press
QNH
hPa
Press
MSL
hPa
Rain since
9am
mm
Dir  Spd
km/h
Gust
km/h
Spd
kts
Gust
kts
13/05:30am - - - - - N 22 24 12 13 - - -
13/05:00am - - - - - NNE 20 24 11 13 - - -
13/04:30am - - - - - NNE 22 24 12 13 - - -
13/04:00am - - - - - N 19 22 10 12 - - -
13/03:30am - - - - - N 15 20 8 11 - - -
13/03:00am - - - - - N 15 17 8 9 - - -
13/02:30am - - - - - N 13 17 7 9 - - -
13/02:00am - - - - - N 15 17 8 9 - - -
13/01:30am - - - - - N 15 17 8 9 - - -
13/01:00am - - - - - N 13 13 7 7 - - -
13/12:30am - - - - - N 15 17 8 9 - - -
13/12:00am - - - - - NNE 17 20 9 11 - - -
 
Date/Time
EDT
Temp
°C
App
Temp
°C
Dew
Point
°C
Rel
Hum
%
Delta-T
°C
Wind Press
QNH
hPa
Press
MSL
hPa
Rain since
9am
mm
Dir  Spd
km/h
Gust
km/h
Spd
kts
Gust
kts
12/11:30pm - - - - - NNE 24 26 13 14 - - -
12/11:00pm - - - - - NNE 22 24 12 13 - - -
12/10:30pm - - - - - NNE 24 26 13 14 - - -
12/10:00pm - - - - - NE 26 26 14 14 - - -
12/09:30pm - - - - - NE 24 26 13 14 - - -
12/09:00pm - - - - - NE 20 24 11 13 - - -
12/08:30pm - - - - - NNE 17 20 9 11 - - -
12/08:00pm - - - - - NNE 19 22 10 12 - - -
12/07:30pm - - - - - N 22 24 12 13 - - -
12/07:00pm - - - - - N 13 20 7 11 - - -
12/06:30pm - - - - - NNE 7 9 4 5 - - -
12/06:00pm - - - - - E 11 15 6 8 - - -
12/05:30pm - - - - - ESE 7 9 4 5 - - -
12/05:00pm - - - - - E 7 9 4 5 - - -
12/04:30pm - - - - - NE 9 13 5 7 - - -
12/04:00pm - - - - - N 13 15 7 8 - - -
12/03:30pm - - - - - N 13 17 7 9 - - -
12/03:00pm - - - - - NNW 11 13 6 7 - - -
12/02:30pm - - - - - NNE 9 11 5 6 - - -
12/02:00pm - - - - - NE 6 7 3 4 - - -
12/01:30pm - - - - - NE 9 11 5 6 - - -
12/01:00pm - - - - - E 7 9 4 5 - - -
12/12:30pm - - - - - S 13 15 7 8 - - -
12/12:00pm - - - - - SSE 13 15 7 8 - - -
12/11:30am - - - - - SSE 11 13 6 7 - - -
12/11:00am - - - - - SSE 11 11 6 6 - - -
12/10:30am - - - - - SE 11 13 6 7 - - -
12/10:00am - - - - - SE 11 13 6 7 - - -
12/09:30am - - - - - E 7 9 4 5 - - -
12/09:00am - - - - - ENE 7 9 4 5 - - -
12/08:30am - - - - - NNE 9 13 5 7 - - -
12/08:00am - - - - - NE 9 11 5 6 - - -
12/07:30am - - - - - NE 11 13 6 7 - - -
12/07:00am - - - - - NNE 9 13 5 7 - - -
12/06:30am - - - - - N 9 11 5 6 - - -
12/06:00am - - - - - N 9 11 5 6 - - -
12/05:30am - - - - - NNW 7 9 4 5 - - -
12/05:00am - - - - - NNW 9 11 5 6 - - -
12/04:30am - - - - - N 9 13 5 7 - - -
12/04:00am - - - - - NW 11 15 6 8 - - -
12/03:30am - - - - - NNW 13 15 7 8 - - -
12/03:00am - - - - - NNW 11 13 6 7 - - -
12/02:30am - - - - - N 9 13 5 7 - - -
12/02:00am - - - - - NNE 6 9 3 5 - - -
12/01:30am - - - - - ENE 7 9 4 5 - - -
12/01:00am - - - - - E 7 11 4 6 - - -
12/12:30am - - - - - E 9 13 5 7 - - -
12/12:00am - - - - - E 15 20 8 11 - - -
 
Date/Time
EDT
Temp
°C
App
Temp
°C
Dew
Point
°C
Rel
Hum
%
Delta-T
°C
Wind Press
QNH
hPa
Press
MSL
hPa
Rain since
9am
mm
Dir  Spd
km/h
Gust
km/h
Spd
kts
Gust
kts
11/11:30pm - - - - - ESE 19 24 10 13 - - -
11/11:00pm - - - - - ESE 20 24 11 13 - - -
11/10:30pm - - - - - SE 20 24 11 13 - - -
11/10:00pm - - - - - SE 24 28 13 15 - - -
11/09:30pm - - - - - SE 26 30 14 16 - - -
11/09:00pm - - - - - SE 26 30 14 16 - - -
11/08:30pm - - - - - SE 28 30 15 16 - - -
11/08:00pm - - - - - SE 26 30 14 16 - - -
11/07:30pm - - - - - SE 26 32 14 17 - - -
11/07:00pm - - - - - SSE 28 33 15 18 - - -
11/06:30pm - - - - - SSE 30 35 16 19 - - -
11/06:00pm - - - - - SSE 32 39 17 21 - - -
11/05:30pm - - - - - SSE 32 35 17 19 - - -
11/05:00pm - - - - - S 30 33 16 18 - - -
11/04:30pm - - - - - SSW 33 39 18 21 - - -
11/04:00pm - - - - - S 32 35 17 19 - - -
11/03:30pm - - - - - SSW 30 33 16 18 - - -
11/03:00pm - - - - - SSW 28 32 15 17 - - -
11/02:30pm - - - - - SSW 26 30 14 16 - - -
11/02:00pm - - - - - SSW 24 28 13 15 - - -
11/01:30pm - - - - - S 24 26 13 14 - - -
11/01:00pm - - - - - SSW 19 22 10 12 - - -
11/12:30pm - - - - - SSW 17 22 9 12 - - -
11/12:00pm - - - - - S 17 20 9 11 - - -
11/11:30am - - - - - S 17 22 9 12 - - -
11/11:00am - - - - - S 13 17 7 9 - - -
11/10:30am - - - - - SSE 13 15 7 8 - - -
11/10:00am - - - - - SE 13 15 7 8 - - -
11/09:30am - - - - - SE 13 15 7 8 - - -
11/09:00am - - - - - ESE 13 15 7 8 - - -
11/08:30am - - - - - SE 11 15 6 8 - - -
11/08:00am - - - - - ESE 13 15 7 8 - - -
11/07:30am - - - - - E 13 15 7 8 - - -
11/07:00am - - - - - E 13 17 7 9 - - -
11/06:30am - - - - - ESE 13 17 7 9 - - -
11/06:00am - - - - - SE 13 15 7 8 - - -
11/05:30am - - - - - ESE 13 15 7 8 - - -
11/05:00am - - - - - ESE 13 17 7 9 - - -
11/04:30am - - - - - ESE 11 15 6 8 - - -
11/04:00am - - - - - E 11 15 6 8 - - -
11/03:30am - - - - - E 9 13 5 7 - - -
11/03:00am - - - - - E 11 13 6 7 - - -
11/02:30am - - - - - E 11 15 6 8 - - -
11/02:00am - - - - - E 11 15 6 8 - - -
11/01:30am - - - - - ENE 11 15 6 8 - - -
11/01:00am - - - - - E 13 15 7 8 - - -
11/12:30am - - - - - E 15 20 8 11 - - -
11/12:00am - - - - - E 19 22 10 12 - - -
 
Date/Time
EDT
Temp
°C
App
Temp
°C
Dew
Point
°C
Rel
Hum
%
Delta-T
°C
Wind Press
QNH
hPa
Press
MSL
hPa
Rain since
9am
mm
Dir  Spd
km/h
Gust
km/h
Spd
kts
Gust
kts
10/11:30pm - - - - - SE 20 24 11 13 - - -
10/11:00pm - - - - - ESE 20 24 11 13 - - -
10/10:30pm - - - - - SE 22 28 12 15 - - -
10/10:00pm - - - - - SSE 26 30 14 16 - - -
10/09:30pm - - - - - S 28 33 15 18 - - -
10/09:00pm - - - - - S 28 33 15 18 - - -
10/08:30pm - - - - - S 30 33 16 18 - - -
10/08:00pm - - - - - S 28 33 15 18 - - -
10/07:30pm - - - - - S 30 33 16 18 - - -
10/07:00pm - - - - - S 28 32 15 17 - - -
10/06:30pm - - - - - S 30 33 16 18 - - -
10/06:00pm - - - - - S 28 32 15 17 - - -
10/05:30pm - - - - - S 28 32 15 17 - - -
10/05:00pm - - - - - SSE 20 26 11 14 - - -
10/04:30pm - - - - - SSE 20 24 11 13 - - -
10/04:00pm - - - - - SE 20 24 11 13 - - -
10/03:30pm - - - - - SE 13 17 7 9 - - -
10/03:00pm - - - - - ESE 13 15 7 8 - - -
10/02:30pm - - - - - ESE 11 15 6 8 - - -
10/02:00pm - - - - - ESE 11 15 6 8 - - -
10/01:30pm - - - - - SE 9 11 5 6 - - -
10/01:00pm - - - - - S 11 13 6 7 - - -
10/12:30pm - - - - - SSE 11 13 6 7 - - -
10/12:00pm - - - - - S 13 15 7 8 - - -
10/11:30am - - - - - SSW 13 15 7 8 - - -
10/11:00am - - - - - SSW 11 13 6 7 - - -
10/10:30am - - - - - SW 13 17 7 9 - - -
10/10:00am - - - - - SW 13 17 7 9 - - -
10/09:30am - - - - - SW 9 13 5 7 - - -
10/09:00am - - - - - W 9 13 5 7 - - -
10/08:30am - - - - - NW 11 15 6 8 - - -
10/08:00am - - - - - NNW 11 15 6 8 - - -
10/07:30am - - - - - NNW 13 15 7 8 - - -
10/07:00am - - - - - NNW 11 15 6 8 - - -
10/06:30am - - - - - NNW 13 15 7 8 - - -
10/06:00am - - - - - N 15 20 8 11 - - -

Other Formats:

Comma delimited format used in spreadsheet applications
http://www.bom.gov.au/fwo/IDV60801/IDV60801.95872.axf

JavaScript Object Notation format (JSON) in row-major order
http://www.bom.gov.au/fwo/IDV60801/IDV60801.95872.json